sensor_id;sensor_type;location;lat;lon;timestamp;temperature;humidity
14614;DHT22;7393;51.446;6.800;2023-03-01T00:02:21;-0.10;99.90
14614;DHT22;7393;51.446;6.800;2023-03-01T00:04:49;-0.10;99.90
14614;DHT22;7393;51.446;6.800;2023-03-01T00:07:16;-0.10;99.90
14614;DHT22;7393;51.446;6.800;2023-03-01T00:09:43;-0.10;99.90
14614;DHT22;7393;51.446;6.800;2023-03-01T00:12:11;-0.10;99.90
14614;DHT22;7393;51.446;6.800;2023-03-01T00:14:38;-0.10;99.90
14614;DHT22;7393;51.446;6.800;2023-03-01T00:17:04;-0.20;99.90
14614;DHT22;7393;51.446;6.800;2023-03-01T00:19:31;-0.20;99.90
14614;DHT22;7393;51.446;6.800;2023-03-01T00:21:59;-0.30;99.90
14614;DHT22;7393;51.446;6.800;2023-03-01T00:24:26;-0.30;99.90
14614;DHT22;7393;51.446;6.800;2023-03-01T00:26:53;-0.30;99.90
14614;DHT22;7393;51.446;6.800;2023-03-01T00:29:21;-0.40;99.90
14614;DHT22;7393;51.446;6.800;2023-03-01T00:31:48;-0.40;99.90
14614;DHT22;7393;51.446;6.800;2023-03-01T00:34:15;-0.40;99.90
14614;DHT22;7393;51.446;6.800;2023-03-01T00:36:41;-0.40;99.90
14614;DHT22;7393;51.446;6.800;2023-03-01T00:39:12;-0.40;99.90
14614;DHT22;7393;51.446;6.800;2023-03-01T00:41:39;-0.40;99.90
14614;DHT22;7393;51.446;6.800;2023-03-01T00:44:06;-0.40;99.90
14614;DHT22;7393;51.446;6.800;2023-03-01T00:46:33;-0.40;99.90
14614;DHT22;7393;51.446;6.800;2023-03-01T00:49:00;-0.40;99.90
14614;DHT22;7393;51.446;6.800;2023-03-01T00:51:30;-0.50;99.90
14614;DHT22;7393;51.446;6.800;2023-03-01T00:53:58;-0.50;99.90
14614;DHT22;7393;51.446;6.800;2023-03-01T00:56:27;-0.50;99.90
14614;DHT22;7393;51.446;6.800;2023-03-01T00:58:55;-0.50;99.90
14614;DHT22;7393;51.446;6.800;2023-03-01T01:01:23;-0.60;99.90
14614;DHT22;7393;51.446;6.800;2023-03-01T01:03:54;-0.60;99.90
14614;DHT22;7393;51.446;6.800;2023-03-01T01:06:24;-0.60;99.90
14614;DHT22;7393;51.446;6.800;2023-03-01T01:08:52;-0.70;99.90
14614;DHT22;7393;51.446;6.800;2023-03-01T01:11:19;-0.70;99.90
14614;DHT22;7393;51.446;6.800;2023-03-01T01:13:48;-0.70;99.90
14614;DHT22;7393;51.446;6.800;2023-03-01T01:16:17;-0.70;99.90
14614;DHT22;7393;51.446;6.800;2023-03-01T01:18:44;-0.70;99.90
14614;DHT22;7393;51.446;6.800;2023-03-01T01:21:14;-0.70;99.90
14614;DHT22;7393;51.446;6.800;2023-03-01T01:23:42;-0.70;99.90
14614;DHT22;7393;51.446;6.800;2023-03-01T01:26:11;-0.80;99.90
14614;DHT22;7393;51.446;6.800;2023-03-01T01:28:38;-0.70;99.90
14614;DHT22;7393;51.446;6.800;2023-03-01T01:31:07;-0.80;99.90
14614;DHT22;7393;51.446;6.800;2023-03-01T01:33:34;-0.80;99.90
14614;DHT22;7393;51.446;6.800;2023-03-01T01:36:03;-0.80;99.90
14614;DHT22;7393;51.446;6.800;2023-03-01T01:38:30;-0.90;99.90
14614;DHT22;7393;51.446;6.800;2023-03-01T01:40:57;-0.90;99.90
14614;DHT22;7393;51.446;6.800;2023-03-01T01:43:26;-0.90;99.90
14614;DHT22;7393;51.446;6.800;2023-03-01T01:45:55;-0.90;99.90
14614;DHT22;7393;51.446;6.800;2023-03-01T01:48:30;-0.90;99.90
14614;DHT22;7393;51.446;6.800;2023-03-01T01:51:07;-1.00;99.90
14614;DHT22;7393;51.446;6.800;2023-03-01T01:53:36;-1.00;99.90
14614;DHT22;7393;51.446;6.800;2023-03-01T01:56:06;-1.00;99.90
14614;DHT22;7393;51.446;6.800;2023-03-01T01:58:35;-1.00;99.90
14614;DHT22;7393;51.446;6.800;2023-03-01T02:01:03;-1.10;99.90
14614;DHT22;7393;51.446;6.800;2023-03-01T02:03:33;-1.10;99.90
14614;DHT22;7393;51.446;6.800;2023-03-01T02:06:05;-1.10;99.90
14614;DHT22;7393;51.446;6.800;2023-03-01T02:08:36;-1.10;99.90
14614;DHT22;7393;51.446;6.800;2023-03-01T02:11:04;-1.10;99.90
14614;DHT22;7393;51.446;6.800;2023-03-01T02:13:31;-1.10;99.90
14614;DHT22;7393;51.446;6.800;2023-03-01T02:16:01;-1.20;99.90
14614;DHT22;7393;51.446;6.800;2023-03-01T02:18:28;-1.20;99.90
14614;DHT22;7393;51.446;6.800;2023-03-01T02:21:05;-1.20;1.00
14614;DHT22;7393;51.446;6.800;2023-03-01T02:23:35;-1.30;99.90
14614;DHT22;7393;51.446;6.800;2023-03-01T02:26:07;-1.30;99.90
14614;DHT22;7393;51.446;6.800;2023-03-01T02:28:39;-1.30;1.00
14614;DHT22;7393;51.446;6.800;2023-03-01T02:31:09;-1.30;1.00
14614;DHT22;7393;51.446;6.800;2023-03-01T02:33:55;-1.30;1.00
14614;DHT22;7393;51.446;6.800;2023-03-01T02:36:25;-1.40;1.00
14614;DHT22;7393;51.446;6.800;2023-03-01T02:38:57;-1.40;1.00
14614;DHT22;7393;51.446;6.800;2023-03-01T02:41:26;-1.40;1.00
14614;DHT22;7393;51.446;6.800;2023-03-01T02:43:56;-1.40;1.00
14614;DHT22;7393;51.446;6.800;2023-03-01T02:46:25;-1.40;1.00
14614;DHT22;7393;51.446;6.800;2023-03-01T02:48:54;-1.50;1.00
14614;DHT22;7393;51.446;6.800;2023-03-01T02:51:42;-1.50;1.00
14614;DHT22;7393;51.446;6.800;2023-03-01T02:54:18;-1.50;1.00
14614;DHT22;7393;51.446;6.800;2023-03-01T02:56:48;-1.50;1.00
14614;DHT22;7393;51.446;6.800;2023-03-01T02:59:19;-1.60;1.00
14614;DHT22;7393;51.446;6.800;2023-03-01T03:01:47;-1.60;1.00
14614;DHT22;7393;51.446;6.800;2023-03-01T03:04:15;-1.60;1.00
14614;DHT22;7393;51.446;6.800;2023-03-01T03:06:43;-1.70;1.00
14614;DHT22;7393;51.446;6.800;2023-03-01T03:09:10;-1.60;1.00
14614;DHT22;7393;51.446;6.800;2023-03-01T03:11:38;-1.70;1.00
14614;DHT22;7393;51.446;6.800;2023-03-01T03:14:06;-1.70;1.00
14614;DHT22;7393;51.446;6.800;2023-03-01T03:16:40;-1.70;1.00
14614;DHT22;7393;51.446;6.800;2023-03-01T03:19:07;-1.70;1.00
14614;DHT22;7393;51.446;6.800;2023-03-01T03:21:34;-1.70;1.00
14614;DHT22;7393;51.446;6.800;2023-03-01T03:24:01;-1.70;1.00
14614;DHT22;7393;51.446;6.800;2023-03-01T03:26:28;-1.70;1.00
14614;DHT22;7393;51.446;6.800;2023-03-01T03:28:54;-1.70;1.00
14614;DHT22;7393;51.446;6.800;2023-03-01T03:31:22;-1.80;1.00
14614;DHT22;7393;51.446;6.800;2023-03-01T03:33:51;-1.80;1.00
14614;DHT22;7393;51.446;6.800;2023-03-01T03:36:19;-1.80;1.00
14614;DHT22;7393;51.446;6.800;2023-03-01T03:38:46;-1.80;1.00
14614;DHT22;7393;51.446;6.800;2023-03-01T03:41:14;-1.80;1.00
14614;DHT22;7393;51.446;6.800;2023-03-01T03:43:41;-1.80;1.00
14614;DHT22;7393;51.446;6.800;2023-03-01T03:46:09;-1.80;1.00
14614;DHT22;7393;51.446;6.800;2023-03-01T03:48:39;-1.90;1.00
14614;DHT22;7393;51.446;6.800;2023-03-01T03:51:10;-1.90;1.00
14614;DHT22;7393;51.446;6.800;2023-03-01T03:53:37;-1.90;1.00
14614;DHT22;7393;51.446;6.800;2023-03-01T03:56:04;-1.90;1.00
14614;DHT22;7393;51.446;6.800;2023-03-01T03:58:31;-2.00;1.00
14614;DHT22;7393;51.446;6.800;2023-03-01T04:00:58;-2.00;5.20
14614;DHT22;7393;51.446;6.800;2023-03-01T04:03:27;-2.00;14.50
14614;DHT22;7393;51.446;6.800;2023-03-01T04:05:54;-2.00;20.20
14614;DHT22;7393;51.446;6.800;2023-03-01T04:08:22;-2.00;20.60
14614;DHT22;7393;51.446;6.800;2023-03-01T04:10:51;-2.00;30.50
14614;DHT22;7393;51.446;6.800;2023-03-01T04:13:20;-2.10;44.60
14614;DHT22;7393;51.446;6.800;2023-03-01T04:15:48;-2.10;50.80
14614;DHT22;7393;51.446;6.800;2023-03-01T04:18:16;-2.10;38.00
14614;DHT22;7393;51.446;6.800;2023-03-01T04:20:44;-2.10;23.70
14614;DHT22;7393;51.446;6.800;2023-03-01T04:23:12;-2.10;21.40
14614;DHT22;7393;51.446;6.800;2023-03-01T04:25:46;-2.10;26.10
14614;DHT22;7393;51.446;6.800;2023-03-01T04:28:15;-2.20;41.40
14614;DHT22;7393;51.446;6.800;2023-03-01T04:30:41;-2.20;60.30
14614;DHT22;7393;51.446;6.800;2023-03-01T04:33:09;-2.20;85.50
14614;DHT22;7393;51.446;6.800;2023-03-01T04:35:36;-2.30;93.70
14614;DHT22;7393;51.446;6.800;2023-03-01T04:38:04;-2.20;99.90
14614;DHT22;7393;51.446;6.800;2023-03-01T04:40:31;-2.20;99.90
14614;DHT22;7393;51.446;6.800;2023-03-01T04:42:59;-2.30;99.90
14614;DHT22;7393;51.446;6.800;2023-03-01T04:45:27;-2.20;99.90
14614;DHT22;7393;51.446;6.800;2023-03-01T04:47:53;-2.30;99.90
14614;DHT22;7393;51.446;6.800;2023-03-01T04:50:23;-2.30;99.90
14614;DHT22;7393;51.446;6.800;2023-03-01T04:52:51;-2.30;99.90
14614;DHT22;7393;51.446;6.800;2023-03-01T04:55:18;-2.30;99.90
14614;DHT22;7393;51.446;6.800;2023-03-01T04:57:45;-2.30;99.90
14614;DHT22;7393;51.446;6.800;2023-03-01T05:00:14;-2.30;99.90
14614;DHT22;7393;51.446;6.800;2023-03-01T05:02:51;-2.30;99.90
14614;DHT22;7393;51.446;6.800;2023-03-01T05:05:21;-2.30;99.90
14614;DHT22;7393;51.446;6.800;2023-03-01T05:07:51;-2.30;99.90
14614;DHT22;7393;51.446;6.800;2023-03-01T05:10:18;-2.30;99.90
14614;DHT22;7393;51.446;6.800;2023-03-01T05:12:45;-2.30;1.00
14614;DHT22;7393;51.446;6.800;2023-03-01T05:15:13;-2.30;1.00
14614;DHT22;7393;51.446;6.800;2023-03-01T05:17:40;-2.40;1.00
14614;DHT22;7393;51.446;6.800;2023-03-01T05:20:08;-2.40;1.00
14614;DHT22;7393;51.446;6.800;2023-03-01T05:22:36;-2.40;1.00
14614;DHT22;7393;51.446;6.800;2023-03-01T05:25:04;-2.40;1.00
14614;DHT22;7393;51.446;6.800;2023-03-01T05:27:32;-2.40;1.00
14614;DHT22;7393;51.446;6.800;2023-03-01T05:29:59;-2.40;1.00
14614;DHT22;7393;51.446;6.800;2023-03-01T05:32:43;-2.40;1.00
14614;DHT22;7393;51.446;6.800;2023-03-01T05:35:12;-2.50;1.00
14614;DHT22;7393;51.446;6.800;2023-03-01T05:37:41;-2.50;1.00
14614;DHT22;7393;51.446;6.800;2023-03-01T05:40:09;-2.50;1.00
14614;DHT22;7393;51.446;6.800;2023-03-01T05:42:42;-2.50;1.00
14614;DHT22;7393;51.446;6.800;2023-03-01T05:45:09;-2.50;1.00
14614;DHT22;7393;51.446;6.800;2023-03-01T05:47:38;-2.50;1.00
14614;DHT22;7393;51.446;6.800;2023-03-01T05:50:07;-2.50;1.00
14614;DHT22;7393;51.446;6.800;2023-03-01T05:52:34;-2.60;1.00
14614;DHT22;7393;51.446;6.800;2023-03-01T05:55:00;-2.60;1.00
14614;DHT22;7393;51.446;6.800;2023-03-01T05:57:28;-2.60;1.00
14614;DHT22;7393;51.446;6.800;2023-03-01T05:59:55;-2.60;1.00
14614;DHT22;7393;51.446;6.800;2023-03-01T06:02:22;-2.60;1.00
14614;DHT22;7393;51.446;6.800;2023-03-01T06:04:49;-2.60;1.00
14614;DHT22;7393;51.446;6.800;2023-03-01T06:07:17;-2.60;1.00
14614;DHT22;7393;51.446;6.800;2023-03-01T06:09:44;-2.60;1.00
14614;DHT22;7393;51.446;6.800;2023-03-01T06:12:11;-2.60;1.00
14614;DHT22;7393;51.446;6.800;2023-03-01T06:14:37;-2.60;1.00
14614;DHT22;7393;51.446;6.800;2023-03-01T06:17:04;-2.60;1.00
14614;DHT22;7393;51.446;6.800;2023-03-01T06:19:31;-2.50;1.00
14614;DHT22;7393;51.446;6.800;2023-03-01T06:21:57;-2.50;12.20
14614;DHT22;7393;51.446;6.800;2023-03-01T06:24:26;-2.40;99.90
14614;DHT22;7393;51.446;6.800;2023-03-01T06:26:54;-2.30;99.90
14614;DHT22;7393;51.446;6.800;2023-03-01T06:29:21;-2.30;99.90
14614;DHT22;7393;51.446;6.800;2023-03-01T06:31:48;-2.20;99.90
14614;DHT22;7393;51.446;6.800;2023-03-01T06:34:14;-2.20;1.00
14614;DHT22;7393;51.446;6.800;2023-03-01T06:36:41;-2.10;1.00
14614;DHT22;7393;51.446;6.800;2023-03-01T06:39:08;-2.00;99.90
14614;DHT22;7393;51.446;6.800;2023-03-01T06:41:36;-2.00;99.90
14614;DHT22;7393;51.446;6.800;2023-03-01T06:44:03;-2.00;99.90
14614;DHT22;7393;51.446;6.800;2023-03-01T06:46:30;-2.00;99.90
14614;DHT22;7393;51.446;6.800;2023-03-01T06:48:57;-1.90;99.90
14614;DHT22;7393;51.446;6.800;2023-03-01T06:51:24;-1.90;99.90
14614;DHT22;7393;51.446;6.800;2023-03-01T06:53:50;-1.80;99.90
14614;DHT22;7393;51.446;6.800;2023-03-01T06:56:17;-1.80;99.90
14614;DHT22;7393;51.446;6.800;2023-03-01T06:58:45;-1.80;99.90
14614;DHT22;7393;51.446;6.800;2023-03-01T07:01:12;-1.70;99.90
14614;DHT22;7393;51.446;6.800;2023-03-01T07:03:39;-1.60;99.90
14614;DHT22;7393;51.446;6.800;2023-03-01T07:06:05;-1.60;58.10
14614;DHT22;7393;51.446;6.800;2023-03-01T07:08:32;-1.60;25.80
14614;DHT22;7393;51.446;6.800;2023-03-01T07:10:59;-1.60;5.50
14614;DHT22;7393;51.446;6.800;2023-03-01T07:13:27;-1.50;69.50
14614;DHT22;7393;51.446;6.800;2023-03-01T07:15:55;-1.50;68.10
14614;DHT22;7393;51.446;6.800;2023-03-01T07:18:22;-1.50;11.50
14614;DHT22;7393;51.446;6.800;2023-03-01T07:20:49;-1.40;1.00
14614;DHT22;7393;51.446;6.800;2023-03-01T07:23:15;-1.40;1.00
14614;DHT22;7393;51.446;6.800;2023-03-01T07:25:42;-1.40;1.00
14614;DHT22;7393;51.446;6.800;2023-03-01T07:28:09;-1.40;1.00
14614;DHT22;7393;51.446;6.800;2023-03-01T07:30:36;-1.30;1.00
14614;DHT22;7393;51.446;6.800;2023-03-01T07:33:04;-1.30;1.00
14614;DHT22;7393;51.446;6.800;2023-03-01T07:35:30;-1.20;1.00
14614;DHT22;7393;51.446;6.800;2023-03-01T07:37:58;-1.20;1.00
14614;DHT22;7393;51.446;6.800;2023-03-01T07:40:25;-1.20;1.00
14614;DHT22;7393;51.446;6.800;2023-03-01T07:42:55;-1.10;1.00
14614;DHT22;7393;51.446;6.800;2023-03-01T07:45:22;-1.00;1.00
14614;DHT22;7393;51.446;6.800;2023-03-01T07:47:50;-1.00;1.00
14614;DHT22;7393;51.446;6.800;2023-03-01T07:50:18;-1.00;1.00
14614;DHT22;7393;51.446;6.800;2023-03-01T07:52:46;-1.00;1.00
14614;DHT22;7393;51.446;6.800;2023-03-01T07:55:13;-0.90;1.00
14614;DHT22;7393;51.446;6.800;2023-03-01T07:57:40;-0.80;99.90
14614;DHT22;7393;51.446;6.800;2023-03-01T08:00:09;-0.80;99.90
14614;DHT22;7393;51.446;6.800;2023-03-01T08:02:36;-0.70;99.90
14614;DHT22;7393;51.446;6.800;2023-03-01T08:05:03;-0.70;99.90
14614;DHT22;7393;51.446;6.800;2023-03-01T08:07:33;-0.60;99.90
14614;DHT22;7393;51.446;6.800;2023-03-01T08:09:59;-0.60;99.90
14614;DHT22;7393;51.446;6.800;2023-03-01T08:12:26;-0.50;99.90
14614;DHT22;7393;51.446;6.800;2023-03-01T08:14:53;-0.40;99.90
14614;DHT22;7393;51.446;6.800;2023-03-01T08:17:20;-0.30;99.90
14614;DHT22;7393;51.446;6.800;2023-03-01T08:19:47;-0.20;1.00
14614;DHT22;7393;51.446;6.800;2023-03-01T08:22:14;-0.10;1.00
14614;DHT22;7393;51.446;6.800;2023-03-01T08:24:42;-0.10;1.00
14614;DHT22;7393;51.446;6.800;2023-03-01T08:27:09;0.00;1.00
14614;DHT22;7393;51.446;6.800;2023-03-01T08:29:37;0.10;1.00
14614;DHT22;7393;51.446;6.800;2023-03-01T08:32:04;0.20;1.00
14614;DHT22;7393;51.446;6.800;2023-03-01T08:34:31;0.40;1.00
14614;DHT22;7393;51.446;6.800;2023-03-01T08:36:57;0.60;1.00
14614;DHT22;7393;51.446;6.800;2023-03-01T08:39:24;0.70;1.00
14614;DHT22;7393;51.446;6.800;2023-03-01T08:41:52;0.80;1.00
14614;DHT22;7393;51.446;6.800;2023-03-01T08:44:19;1.00;99.90
14614;DHT22;7393;51.446;6.800;2023-03-01T08:46:47;1.10;99.90
14614;DHT22;7393;51.446;6.800;2023-03-01T08:49:16;1.20;99.90
14614;DHT22;7393;51.446;6.800;2023-03-01T08:51:44;1.30;99.90
14614;DHT22;7393;51.446;6.800;2023-03-01T08:54:13;1.50;99.90
14614;DHT22;7393;51.446;6.800;2023-03-01T08:56:40;1.60;99.90
14614;DHT22;7393;51.446;6.800;2023-03-01T08:59:09;1.70;99.90
14614;DHT22;7393;51.446;6.800;2023-03-01T09:01:36;1.90;99.90
14614;DHT22;7393;51.446;6.800;2023-03-01T09:04:03;2.00;99.90
14614;DHT22;7393;51.446;6.800;2023-03-01T09:06:30;2.10;99.90
14614;DHT22;7393;51.446;6.800;2023-03-01T09:08:58;2.20;99.90
14614;DHT22;7393;51.446;6.800;2023-03-01T09:11:25;2.30;99.90
14614;DHT22;7393;51.446;6.800;2023-03-01T09:13:52;2.40;99.90
14614;DHT22;7393;51.446;6.800;2023-03-01T09:16:21;2.50;99.90
14614;DHT22;7393;51.446;6.800;2023-03-01T09:18:49;2.60;99.90
14614;DHT22;7393;51.446;6.800;2023-03-01T09:21:17;2.70;99.90
14614;DHT22;7393;51.446;6.800;2023-03-01T09:23:47;2.80;99.90
14614;DHT22;7393;51.446;6.800;2023-03-01T09:26:16;2.90;99.80
14614;DHT22;7393;51.446;6.800;2023-03-01T09:28:44;3.00;87.50
14614;DHT22;7393;51.446;6.800;2023-03-01T09:31:12;3.10;83.70
14614;DHT22;7393;51.446;6.800;2023-03-01T09:33:41;3.20;67.80
14614;DHT22;7393;51.446;6.800;2023-03-01T09:36:12;3.20;63.10
14614;DHT22;7393;51.446;6.800;2023-03-01T09:38:39;3.40;59.10
14614;DHT22;7393;51.446;6.800;2023-03-01T09:41:11;3.50;49.40
14614;DHT22;7393;51.446;6.800;2023-03-01T09:43:49;3.60;37.50
14614;DHT22;7393;51.446;6.800;2023-03-01T09:46:21;3.70;37.50
14614;DHT22;7393;51.446;6.800;2023-03-01T09:48:52;3.80;32.10
14614;DHT22;7393;51.446;6.800;2023-03-01T09:51:26;3.90;27.60
14614;DHT22;7393;51.446;6.800;2023-03-01T09:53:53;4.00;16.70
14614;DHT22;7393;51.446;6.800;2023-03-01T09:56:27;4.10;10.80
14614;DHT22;7393;51.446;6.800;2023-03-01T09:58:59;4.20;5.30
14614;DHT22;7393;51.446;6.800;2023-03-01T10:01:30;4.30;1.00
14614;DHT22;7393;51.446;6.800;2023-03-01T10:04:27;4.30;1.00
14614;DHT22;7393;51.446;6.800;2023-03-01T10:07:05;4.40;1.00
14614;DHT22;7393;51.446;6.800;2023-03-01T10:09:35;4.50;1.00
14614;DHT22;7393;51.446;6.800;2023-03-01T10:12:07;4.60;1.00
14614;DHT22;7393;51.446;6.800;2023-03-01T10:14:38;4.60;1.00
14614;DHT22;7393;51.446;6.800;2023-03-01T10:17:11;4.70;1.00
14614;DHT22;7393;51.446;6.800;2023-03-01T10:19:42;4.80;1.00
14614;DHT22;7393;51.446;6.800;2023-03-01T10:22:13;4.80;1.00
14614;DHT22;7393;51.446;6.800;2023-03-01T10:24:41;4.90;1.00
14614;DHT22;7393;51.446;6.800;2023-03-01T10:27:13;5.00;1.00
14614;DHT22;7393;51.446;6.800;2023-03-01T10:29:48;5.10;1.00
14614;DHT22;7393;51.446;6.800;2023-03-01T10:32:17;5.20;1.00
14614;DHT22;7393;51.446;6.800;2023-03-01T10:34:45;5.30;1.00
14614;DHT22;7393;51.446;6.800;2023-03-01T10:37:14;5.40;1.00
14614;DHT22;7393;51.446;6.800;2023-03-01T10:39:57;5.50;1.00
14614;DHT22;7393;51.446;6.800;2023-03-01T10:42:29;5.60;1.00
14614;DHT22;7393;51.446;6.800;2023-03-01T10:44:57;5.70;1.00
14614;DHT22;7393;51.446;6.800;2023-03-01T10:47:26;5.80;1.00
14614;DHT22;7393;51.446;6.800;2023-03-01T10:49:57;5.90;1.00
14614;DHT22;7393;51.446;6.800;2023-03-01T10:52:27;6.00;1.00
14614;DHT22;7393;51.446;6.800;2023-03-01T10:54:56;6.10;1.00
14614;DHT22;7393;51.446;6.800;2023-03-01T10:57:37;6.20;1.00
14614;DHT22;7393;51.446;6.800;2023-03-01T11:00:20;6.30;1.00
14614;DHT22;7393;51.446;6.800;2023-03-01T11:02:49;6.40;1.00
14614;DHT22;7393;51.446;6.800;2023-03-01T11:05:20;6.50;1.00
14614;DHT22;7393;51.446;6.800;2023-03-01T11:07:51;6.50;1.00
14614;DHT22;7393;51.446;6.800;2023-03-01T11:10:19;6.60;1.00
14614;DHT22;7393;51.446;6.800;2023-03-01T11:12:46;6.70;1.00
14614;DHT22;7393;51.446;6.800;2023-03-01T11:15:22;6.70;1.00
14614;DHT22;7393;51.446;6.800;2023-03-01T11:17:49;6.70;1.00
14614;DHT22;7393;51.446;6.800;2023-03-01T11:20:25;6.90;1.00
14614;DHT22;7393;51.446;6.800;2023-03-01T11:22:55;7.00;1.00
14614;DHT22;7393;51.446;6.800;2023-03-01T11:25:25;7.20;1.00
14614;DHT22;7393;51.446;6.800;2023-03-01T11:27:53;7.30;1.00
14614;DHT22;7393;51.446;6.800;2023-03-01T11:30:24;7.40;1.00
14614;DHT22;7393;51.446;6.800;2023-03-01T11:33:03;7.50;1.00
14614;DHT22;7393;51.446;6.800;2023-03-01T11:35:35;7.50;1.00
14614;DHT22;7393;51.446;6.800;2023-03-01T11:38:14;7.70;1.00
14614;DHT22;7393;51.446;6.800;2023-03-01T11:40:46;7.80;1.00
14614;DHT22;7393;51.446;6.800;2023-03-01T11:43:19;7.90;1.00
14614;DHT22;7393;51.446;6.800;2023-03-01T11:48:47;8.20;1.00
14614;DHT22;7393;51.446;6.800;2023-03-01T11:51:23;8.20;1.00
14614;DHT22;7393;51.446;6.800;2023-03-01T11:54:02;8.20;1.00
14614;DHT22;7393;51.446;6.800;2023-03-01T11:56:34;8.20;1.00
14614;DHT22;7393;51.446;6.800;2023-03-01T11:59:34;8.20;1.00
14614;DHT22;7393;51.446;6.800;2023-03-01T12:02:19;8.20;1.00
14614;DHT22;7393;51.446;6.800;2023-03-01T12:07:49;8.40;1.00
14614;DHT22;7393;51.446;6.800;2023-03-01T12:10:23;8.60;1.00
14614;DHT22;7393;51.446;6.800;2023-03-01T12:13:18;8.60;1.00
14614;DHT22;7393;51.446;6.800;2023-03-01T12:16:02;8.70;1.00
14614;DHT22;7393;51.446;6.800;2023-03-01T12:18:48;8.70;1.00
14614;DHT22;7393;51.446;6.800;2023-03-01T12:21:29;8.80;1.00
14614;DHT22;7393;51.446;6.800;2023-03-01T12:24:12;8.80;1.00
14614;DHT22;7393;51.446;6.800;2023-03-01T12:26:47;8.90;1.00
14614;DHT22;7393;51.446;6.800;2023-03-01T12:29:25;9.00;1.00
14614;DHT22;7393;51.446;6.800;2023-03-01T12:32:15;9.10;1.00
14614;DHT22;7393;51.446;6.800;2023-03-01T12:37:47;9.40;1.00
14614;DHT22;7393;51.446;6.800;2023-03-01T12:40:30;9.40;1.00
14614;DHT22;7393;51.446;6.800;2023-03-01T12:43:10;9.60;1.00
14614;DHT22;7393;51.446;6.800;2023-03-01T12:45:54;9.70;1.00
14614;DHT22;7393;51.446;6.800;2023-03-01T12:48:40;9.80;1.00
14614;DHT22;7393;51.446;6.800;2023-03-01T12:51:10;9.90;1.00
14614;DHT22;7393;51.446;6.800;2023-03-01T12:53:41;10.00;1.00
14614;DHT22;7393;51.446;6.800;2023-03-01T12:56:11;10.00;1.00
14614;DHT22;7393;51.446;6.800;2023-03-01T12:58:45;9.90;1.00
14614;DHT22;7393;51.446;6.800;2023-03-01T13:01:22;9.90;1.00
14614;DHT22;7393;51.446;6.800;2023-03-01T13:04:18;9.90;1.00
14614;DHT22;7393;51.446;6.800;2023-03-01T13:06:55;9.80;1.00
14614;DHT22;7393;51.446;6.800;2023-03-01T13:09:30;9.70;1.00
14614;DHT22;7393;51.446;6.800;2023-03-01T13:12:03;9.60;1.00
14614;DHT22;7393;51.446;6.800;2023-03-01T13:14:50;9.80;1.00
14614;DHT22;7393;51.446;6.800;2023-03-01T13:17:39;10.00;1.00
14614;DHT22;7393;51.446;6.800;2023-03-01T13:20:15;10.10;1.00
14614;DHT22;7393;51.446;6.800;2023-03-01T13:22:45;10.20;1.00
14614;DHT22;7393;51.446;6.800;2023-03-01T13:25:15;10.20;1.00
14614;DHT22;7393;51.446;6.800;2023-03-01T13:27:45;10.30;1.00
14614;DHT22;7393;51.446;6.800;2023-03-01T13:30:40;10.40;1.00
14614;DHT22;7393;51.446;6.800;2023-03-01T13:33:43;10.50;1.00
14614;DHT22;7393;51.446;6.800;2023-03-01T13:36:13;10.60;1.00
14614;DHT22;7393;51.446;6.800;2023-03-01T13:39:03;10.70;1.00
14614;DHT22;7393;51.446;6.800;2023-03-01T13:41:51;10.70;1.00
14614;DHT22;7393;51.446;6.800;2023-03-01T13:44:25;10.70;1.00
14614;DHT22;7393;51.446;6.800;2023-03-01T13:46:55;10.70;1.00
14614;DHT22;7393;51.446;6.800;2023-03-01T13:49:25;10.80;1.00
14614;DHT22;7393;51.446;6.800;2023-03-01T13:51:53;10.50;1.00
14614;DHT22;7393;51.446;6.800;2023-03-01T13:54:25;10.30;1.00
14614;DHT22;7393;51.446;6.800;2023-03-01T13:56:53;10.30;1.00
14614;DHT22;7393;51.446;6.800;2023-03-01T13:59:22;10.40;1.00
14614;DHT22;7393;51.446;6.800;2023-03-01T14:01:52;10.40;1.00
14614;DHT22;7393;51.446;6.800;2023-03-01T14:04:21;10.30;1.00
14614;DHT22;7393;51.446;6.800;2023-03-01T14:06:48;10.30;1.00
14614;DHT22;7393;51.446;6.800;2023-03-01T14:09:18;10.30;1.00
14614;DHT22;7393;51.446;6.800;2023-03-01T14:12:14;10.40;1.00
14614;DHT22;7393;51.446;6.800;2023-03-01T14:14:48;10.50;1.00
14614;DHT22;7393;51.446;6.800;2023-03-01T14:17:34;10.50;1.00
14614;DHT22;7393;51.446;6.800;2023-03-01T14:20:12;10.40;1.00
14614;DHT22;7393;51.446;6.800;2023-03-01T14:22:41;10.40;1.00
14614;DHT22;7393;51.446;6.800;2023-03-01T14:25:19;10.50;1.00
14614;DHT22;7393;51.446;6.800;2023-03-01T14:27:55;10.50;1.00
14614;DHT22;7393;51.446;6.800;2023-03-01T14:30:25;10.60;1.00
14614;DHT22;7393;51.446;6.800;2023-03-01T14:32:55;10.60;1.00
14614;DHT22;7393;51.446;6.800;2023-03-01T14:35:24;10.60;1.00
14614;DHT22;7393;51.446;6.800;2023-03-01T14:37:51;10.70;1.00
14614;DHT22;7393;51.446;6.800;2023-03-01T14:40:24;10.60;1.00
14614;DHT22;7393;51.446;6.800;2023-03-01T14:42:52;10.60;1.00
14614;DHT22;7393;51.446;6.800;2023-03-01T14:45:19;10.30;1.00
14614;DHT22;7393;51.446;6.800;2023-03-01T14:47:47;10.10;1.00
14614;DHT22;7393;51.446;6.800;2023-03-01T14:50:23;10.00;1.00
14614;DHT22;7393;51.446;6.800;2023-03-01T14:52:52;9.80;1.00
14614;DHT22;7393;51.446;6.800;2023-03-01T14:55:24;9.70;1.00
14614;DHT22;7393;51.446;6.800;2023-03-01T14:57:52;9.70;1.00
14614;DHT22;7393;51.446;6.800;2023-03-01T15:00:22;9.70;1.00
14614;DHT22;7393;51.446;6.800;2023-03-01T15:02:52;9.60;1.00
14614;DHT22;7393;51.446;6.800;2023-03-01T15:05:25;9.50;1.00
14614;DHT22;7393;51.446;6.800;2023-03-01T15:07:54;9.40;1.00
14614;DHT22;7393;51.446;6.800;2023-03-01T15:10:24;9.40;1.00
14614;DHT22;7393;51.446;6.800;2023-03-01T15:12:52;9.30;1.00
14614;DHT22;7393;51.446;6.800;2023-03-01T15:15:23;9.30;1.00
14614;DHT22;7393;51.446;6.800;2023-03-01T15:17:59;9.20;1.00
14614;DHT22;7393;51.446;6.800;2023-03-01T15:20:27;9.20;1.00
14614;DHT22;7393;51.446;6.800;2023-03-01T15:22:56;9.20;1.00
14614;DHT22;7393;51.446;6.800;2023-03-01T15:25:25;9.20;1.00
14614;DHT22;7393;51.446;6.800;2023-03-01T15:27:54;9.20;1.00
14614;DHT22;7393;51.446;6.800;2023-03-01T15:30:23;9.20;1.00
14614;DHT22;7393;51.446;6.800;2023-03-01T15:33:17;9.10;1.00
14614;DHT22;7393;51.446;6.800;2023-03-01T15:35:46;9.00;1.00
14614;DHT22;7393;51.446;6.800;2023-03-01T15:38:30;8.90;1.00
14614;DHT22;7393;51.446;6.800;2023-03-01T15:40:59;8.70;1.00
14614;DHT22;7393;51.446;6.800;2023-03-01T15:43:44;8.70;1.00
14614;DHT22;7393;51.446;6.800;2023-03-01T15:46:17;8.70;1.00
14614;DHT22;7393;51.446;6.800;2023-03-01T15:48:47;8.60;1.00
14614;DHT22;7393;51.446;6.800;2023-03-01T15:51:16;8.60;1.00
14614;DHT22;7393;51.446;6.800;2023-03-01T15:53:47;8.60;1.00
14614;DHT22;7393;51.446;6.800;2023-03-01T15:56:15;8.50;1.00
14614;DHT22;7393;51.446;6.800;2023-03-01T15:58:42;8.40;1.00
14614;DHT22;7393;51.446;6.800;2023-03-01T16:01:11;8.40;1.00
14614;DHT22;7393;51.446;6.800;2023-03-01T16:03:38;8.30;1.00
14614;DHT22;7393;51.446;6.800;2023-03-01T16:06:09;8.30;1.00
14614;DHT22;7393;51.446;6.800;2023-03-01T16:08:36;8.20;1.00
14614;DHT22;7393;51.446;6.800;2023-03-01T16:11:04;8.20;1.00
14614;DHT22;7393;51.446;6.800;2023-03-01T16:13:31;8.10;1.00
14614;DHT22;7393;51.446;6.800;2023-03-01T16:15:58;8.00;1.00
14614;DHT22;7393;51.446;6.800;2023-03-01T16:18:25;7.90;1.00
14614;DHT22;7393;51.446;6.800;2023-03-01T16:20:51;7.80;1.00
14614;DHT22;7393;51.446;6.800;2023-03-01T16:23:20;7.70;1.00
14614;DHT22;7393;51.446;6.800;2023-03-01T16:25:50;7.70;1.00
14614;DHT22;7393;51.446;6.800;2023-03-01T16:28:17;7.60;1.00
14614;DHT22;7393;51.446;6.800;2023-03-01T16:30:46;7.60;1.00
14614;DHT22;7393;51.446;6.800;2023-03-01T16:33:14;7.60;1.00